createdAt,value
2023-03-10T00:01:24.157Z,16.95
2023-03-10T00:03:54.008Z,18.55
2023-03-10T00:06:25.633Z,18.20
2023-03-10T00:08:54.801Z,17.30
2023-03-10T00:11:23.524Z,16.38
2023-03-10T00:13:52.014Z,18.40
2023-03-10T00:16:24.008Z,14.52
2023-03-10T00:18:52.678Z,14.80
2023-03-10T00:21:23.143Z,14.77
2023-03-10T00:23:51.717Z,17.23
2023-03-10T00:26:21.811Z,17.10
2023-03-10T00:28:50.766Z,13.32
2023-03-10T00:31:22.469Z,15.23
2023-03-10T00:33:52.196Z,19.33
2023-03-10T00:36:23.099Z,16.15
2023-03-10T00:38:52.479Z,16.20
2023-03-10T00:41:22.663Z,18.60
2023-03-10T00:43:51.858Z,12.63
2023-03-10T00:46:21.841Z,13.50
2023-03-10T00:48:50.224Z,12.20
2023-03-10T00:51:19.598Z,12.60
2023-03-10T00:53:48.613Z,12.23
2023-03-10T00:56:21.931Z,9.95
2023-03-10T00:58:53.318Z,11.23
2023-03-10T01:01:26.158Z,15.02
2023-03-10T01:03:56.540Z,9.70
2023-03-10T01:06:25.272Z,9.07
2023-03-10T01:08:53.783Z,8.93
2023-03-10T01:11:24.554Z,8.77
2023-03-10T01:13:54.060Z,11.15
2023-03-10T01:16:23.891Z,9.95
2023-03-10T01:18:52.438Z,9.85
2023-03-10T01:21:23.480Z,9.68
2023-03-10T01:23:51.801Z,13.13
2023-03-10T01:26:20.368Z,6.43
2023-03-10T01:28:49.290Z,8.13
2023-03-10T01:31:18.976Z,6.97
2023-03-10T01:33:49.300Z,7.47
2023-03-10T01:36:19.757Z,7.25
2023-03-10T01:38:48.790Z,10.30
2023-03-10T01:41:17.918Z,9.52
2023-03-10T01:43:48.791Z,11.48
2023-03-10T01:46:42.887Z,6.90
2023-03-10T01:49:19.093Z,7.47
2023-03-10T01:51:52.058Z,9.35
2023-03-10T01:54:25.245Z,6.45
2023-03-10T01:56:55.480Z,14.55
2023-03-10T01:59:28.680Z,18.45
2023-03-10T02:01:58.847Z,10.85
2023-03-10T02:04:36.125Z,7.40
2023-03-10T02:07:07.239Z,14.07
2023-03-10T02:09:39.391Z,11.02
2023-03-10T02:12:10.372Z,14.45
2023-03-10T02:14:39.414Z,8.93
2023-03-10T02:17:10.243Z,14.23
2023-03-10T02:19:56.203Z,12.75
2023-03-10T02:22:24.578Z,12.07
2023-03-10T02:24:55.394Z,12.43
2023-03-10T02:27:27.267Z,12.88
2023-03-10T02:30:00.830Z,14.30
2023-03-10T02:32:32.340Z,14.48
2023-03-10T02:35:00.984Z,8.18
2023-03-10T02:37:31.609Z,9.85
2023-03-10T02:40:00.696Z,6.40
2023-03-10T02:42:34.320Z,7.00
2023-03-10T02:45:04.037Z,4.35
2023-03-10T02:47:32.409Z,7.57
2023-03-10T02:50:00.810Z,2.38
2023-03-10T02:52:35.836Z,3.28
2023-03-10T02:55:04.262Z,3.90
2023-03-10T02:57:33.930Z,1.58
2023-03-10T03:00:02.472Z,2.10
2023-03-10T03:02:33.008Z,6.47
2023-03-10T03:05:01.399Z,2.63
2023-03-10T03:07:30.085Z,0.93
2023-03-10T03:09:58.554Z,0.93
2023-03-10T03:12:26.973Z,3.60
2023-03-10T03:14:56.704Z,1.45
2023-03-10T03:17:25.089Z,2.63
2023-03-10T03:19:54.048Z,1.15
2023-03-10T03:22:22.376Z,3.13
2023-03-10T03:24:50.771Z,1.55
2023-03-10T03:27:19.187Z,3.40
2023-03-10T03:29:47.587Z,0.60
2023-03-10T03:32:17.424Z,3.58
2023-03-10T03:34:45.781Z,5.22
2023-03-10T03:37:14.151Z,3.50
2023-03-10T03:39:42.731Z,2.05
2023-03-10T03:42:11.302Z,4.22
2023-03-10T03:44:39.790Z,7.35
2023-03-10T03:47:09.160Z,7.72
2023-03-10T03:49:39.409Z,9.25
2023-03-10T03:52:08.752Z,6.88
2023-03-10T03:54:37.398Z,7.00
2023-03-10T03:57:05.884Z,5.55
2023-03-10T03:59:34.277Z,7.68
2023-03-10T04:02:03.560Z,7.70
2023-03-10T04:04:31.940Z,4.38
2023-03-10T04:07:03.041Z,9.80
2023-03-10T04:09:31.367Z,8.20
2023-03-10T04:11:59.869Z,18.30
2023-03-10T04:14:29.014Z,8.80
2023-03-10T04:16:57.356Z,12.52
2023-03-10T04:19:25.840Z,7.30
2023-03-10T04:21:54.149Z,7.85
2023-03-10T04:24:24.240Z,13.63
2023-03-10T04:26:52.586Z,9.85
2023-03-10T04:29:24.437Z,6.93
2023-03-10T04:32:04.858Z,13.15
2023-03-10T04:34:34.162Z,11.68
2023-03-10T04:37:03.432Z,10.10
2023-03-10T04:39:33.160Z,8.50
2023-03-10T04:42:01.556Z,3.10
2023-03-10T04:44:31.228Z,11.88
2023-03-10T04:46:59.954Z,8.45
2023-03-10T04:49:28.960Z,7.25
2023-03-10T04:51:57.429Z,8.48
2023-03-10T04:54:25.750Z,5.88
2023-03-10T04:56:55.509Z,8.25
2023-03-10T04:59:24.493Z,7.63
2023-03-10T05:01:54.093Z,8.18
2023-03-10T05:04:22.492Z,7.60
2023-03-10T05:06:51.846Z,8.05
2023-03-10T05:09:20.248Z,8.02
2023-03-10T05:11:48.721Z,10.68
2023-03-10T05:14:19.101Z,13.20
2023-03-10T05:16:49.394Z,7.70
2023-03-10T05:19:17.862Z,14.38
2023-03-10T05:21:46.244Z,15.00
2023-03-10T05:24:14.742Z,13.23
2023-03-10T05:26:43.124Z,16.40
2023-03-10T05:29:11.865Z,15.00
2023-03-10T05:31:41.664Z,19.52
2023-03-10T05:34:10.525Z,12.50
2023-03-10T05:36:38.937Z,12.60
2023-03-10T05:39:09.543Z,9.55
2023-03-10T05:41:38.464Z,13.85
2023-03-10T05:44:07.199Z,22.40
2023-03-10T05:46:35.616Z,17.98
2023-03-10T05:49:06.274Z,16.17
2023-03-10T05:51:34.638Z,21.63
2023-03-10T05:54:03.912Z,16.55
2023-03-10T05:56:32.296Z,17.30
2023-03-10T05:59:00.667Z,23.02
2023-03-10T06:01:29.380Z,20.63
2023-03-10T06:03:57.988Z,17.33
2023-03-10T06:06:27.826Z,11.30
2023-03-10T06:08:56.822Z,17.42
2023-03-10T06:11:25.432Z,25.58
2023-03-10T06:13:56.819Z,21.00
2023-03-10T06:16:25.393Z,27.48
2023-03-10T06:18:55.692Z,18.45
2023-03-10T06:21:25.348Z,22.52
2023-03-10T06:23:55.093Z,19.65
2023-03-10T06:26:24.615Z,19.38
2023-03-10T06:28:53.164Z,15.48
2023-03-10T06:31:24.434Z,21.63
2023-03-10T06:33:53.636Z,30.92
2023-03-10T06:36:22.908Z,25.67
2023-03-10T06:38:51.822Z,22.20
2023-03-10T06:41:22.915Z,23.70
2023-03-10T06:43:51.328Z,18.90
2023-03-10T06:46:19.804Z,21.17
2023-03-10T06:48:48.204Z,22.05
2023-03-10T06:51:18.648Z,22.80
2023-03-10T06:53:47.369Z,13.10
2023-03-10T06:56:17.960Z,21.67
2023-03-10T06:58:48.595Z,18.58
2023-03-10T07:01:26.630Z,22.92
2023-03-10T07:03:55.617Z,22.80
2023-03-10T07:06:24.822Z,14.35
2023-03-10T07:08:54.459Z,17.15
2023-03-10T07:11:23.635Z,17.00
2023-03-10T07:13:53.989Z,11.00
2023-03-10T07:16:22.606Z,12.80
2023-03-10T07:18:51.422Z,12.43
2023-03-10T07:21:21.810Z,13.73
2023-03-10T07:23:50.370Z,13.73
2023-03-10T07:26:19.803Z,11.40
2023-03-10T07:28:48.671Z,12.68
2023-03-10T07:31:19.006Z,13.35
2023-03-10T07:33:47.909Z,16.02
2023-03-10T07:36:18.274Z,9.73
2023-03-10T07:38:47.017Z,10.32
2023-03-10T07:41:18.868Z,11.07
2023-03-10T07:43:47.334Z,10.60
2023-03-10T07:46:18.067Z,8.02
2023-03-10T07:48:46.633Z,18.23
2023-03-10T07:51:15.998Z,20.75
2023-03-10T07:53:44.390Z,13.75
2023-03-10T07:56:14.644Z,14.50
2023-03-10T07:58:43.810Z,16.20
2023-03-10T08:01:16.940Z,16.15
2023-03-10T08:03:47.653Z,15.50
2023-03-10T08:06:20.789Z,8.65
2023-03-10T08:08:49.888Z,17.77
2023-03-10T08:11:18.342Z,12.70
2023-03-10T08:13:47.677Z,5.32
2023-03-10T08:16:16.475Z,24.35
2023-03-10T08:18:45.209Z,11.93
2023-03-10T08:21:15.298Z,9.82
2023-03-10T08:23:44.000Z,8.10
2023-03-10T08:26:14.508Z,11.75
2023-03-10T08:28:43.201Z,7.78
2023-03-10T08:31:12.684Z,11.45
2023-03-10T08:33:41.424Z,7.80
2023-03-10T08:36:11.100Z,8.30
2023-03-10T08:38:41.190Z,7.38
2023-03-10T08:41:11.099Z,8.00
2023-03-10T08:43:39.806Z,4.68
2023-03-10T08:46:09.027Z,4.50
2023-03-10T08:48:37.844Z,4.15
2023-03-10T08:51:07.489Z,4.78
2023-03-10T08:53:37.297Z,8.05
2023-03-10T08:56:08.492Z,8.63
2023-03-10T08:58:36.862Z,1.63
2023-03-10T09:01:06.455Z,6.78
2023-03-10T09:03:37.223Z,6.97
2023-03-10T09:06:05.908Z,3.65
2023-03-10T09:08:34.747Z,5.60
2023-03-10T09:11:04.935Z,3.60
2023-03-10T09:13:35.054Z,4.32
2023-03-10T09:16:05.565Z,6.55
2023-03-10T09:18:34.399Z,6.28
2023-03-10T09:21:03.065Z,4.85
2023-03-10T09:23:31.684Z,12.05
2023-03-10T09:26:01.311Z,9.07
2023-03-10T09:28:29.891Z,8.88
2023-03-10T09:31:00.195Z,9.57
2023-03-10T09:33:28.781Z,7.63
2023-03-10T09:36:06.380Z,12.75
2023-03-10T09:38:35.712Z,12.57
2023-03-10T09:41:10.664Z,10.15
2023-03-10T09:43:40.251Z,29.30
2023-03-10T09:50:11.926Z,14.70
2023-03-10T09:52:45.266Z,12.48
2023-03-10T09:55:20.498Z,11.80
2023-03-10T09:57:50.517Z,14.27
2023-03-10T10:00:23.170Z,14.18
2023-03-10T10:02:53.118Z,17.15
2023-03-10T10:05:26.484Z,16.75
2023-03-10T10:07:56.856Z,14.77
2023-03-10T10:10:27.006Z,16.75
2023-03-10T10:13:07.457Z,20.20
2023-03-10T10:15:38.298Z,14.05
2023-03-10T10:18:23.369Z,15.18
2023-03-10T10:21:01.113Z,18.55
2023-03-10T10:23:32.122Z,21.60
2023-03-10T10:26:04.440Z,14.02
2023-03-10T10:28:41.876Z,59.90
2023-03-10T10:31:16.735Z,18.88
2023-03-10T10:33:59.602Z,12.85
2023-03-10T10:36:33.534Z,10.70
2023-03-10T10:40:27.945Z,7.38
2023-03-10T10:42:58.512Z,9.10
2023-03-10T10:45:30.253Z,8.90
2023-03-10T10:47:58.780Z,6.78
2023-03-10T10:50:28.559Z,9.90
2023-03-10T10:53:21.970Z,12.73
2023-03-10T10:56:04.089Z,5.97
2023-03-10T10:58:35.083Z,7.55
2023-03-10T11:01:05.841Z,11.57
2023-03-10T11:03:36.987Z,23.15
2023-03-10T11:06:15.624Z,8.18
2023-03-10T11:08:50.968Z,37.05
2023-03-10T11:11:33.646Z,37.15
2023-03-10T11:14:31.359Z,8.93
2023-03-10T11:17:05.522Z,9.63
2023-03-10T11:19:39.388Z,7.85
2023-03-10T11:22:19.063Z,9.77
2023-03-10T11:24:52.361Z,9.48
2023-03-10T11:27:29.685Z,9.07
2023-03-10T11:30:06.916Z,7.97
2023-03-10T11:32:46.000Z,5.82
2023-03-10T11:35:24.637Z,6.55
2023-03-10T11:38:01.940Z,5.68
2023-03-10T11:40:36.816Z,5.75
2023-03-10T11:43:13.049Z,5.45
2023-03-10T11:45:52.603Z,4.18
2023-03-10T11:48:35.077Z,5.85
2023-03-10T11:51:06.146Z,10.73
2023-03-10T11:53:41.108Z,20.33
2023-03-10T11:56:12.709Z,13.98
2023-03-10T11:58:50.873Z,6.43
2023-03-10T12:01:24.373Z,4.22
2023-03-10T12:04:00.580Z,2.72
2023-03-10T12:06:36.064Z,3.72
2023-03-10T12:09:07.231Z,4.13
2023-03-10T12:11:37.761Z,4.20
2023-03-10T12:14:07.648Z,1.08
2023-03-10T12:16:39.547Z,1.20
2023-03-10T12:19:08.178Z,1.90
2023-03-10T12:21:36.572Z,4.07
2023-03-10T12:24:05.937Z,4.35
2023-03-10T12:30:44.145Z,11.02
2023-03-10T12:33:43.901Z,7.55
2023-03-10T12:36:16.131Z,5.05
2023-03-10T12:38:47.328Z,4.60
2023-03-10T12:41:31.545Z,2.42
2023-03-10T12:44:01.318Z,7.20
2023-03-10T12:46:48.818Z,5.00
2023-03-10T12:49:36.035Z,7.80
2023-03-10T12:52:22.460Z,7.20
2023-03-10T12:55:03.001Z,3.03
2023-03-10T12:57:37.594Z,2.37
2023-03-10T13:00:08.497Z,1.43
2023-03-10T13:02:47.660Z,2.00
2023-03-10T13:05:24.069Z,0.27
2023-03-10T13:07:57.124Z,1.70
2023-03-10T13:10:28.456Z,0.77
2023-03-10T13:13:00.686Z,0.50
2023-03-10T13:15:31.992Z,2.30
2023-03-10T13:18:19.847Z,0.50
2023-03-10T13:20:50.955Z,3.90
2023-03-10T13:25:01.865Z,1.07
2023-03-10T13:27:32.919Z,2.03
2023-03-10T13:30:04.815Z,3.50
2023-03-10T13:33:28.393Z,1.83
2023-03-10T13:35:56.782Z,2.23
2023-03-10T13:38:25.512Z,1.77
2023-03-10T13:41:02.584Z,3.57
2023-03-10T13:43:37.538Z,1.33
2023-03-10T13:46:10.120Z,5.10
2023-03-10T13:48:41.305Z,10.70
2023-03-10T13:51:18.932Z,2.37
2023-03-10T13:53:48.526Z,7.07
2023-03-10T13:56:21.049Z,2.00
2023-03-10T13:58:51.430Z,3.47
2023-03-10T14:01:24.218Z,2.37
2023-03-10T14:04:00.182Z,6.60
2023-03-10T14:06:30.669Z,2.93
2023-03-10T14:09:12.743Z,7.23
2023-03-10T14:11:42.476Z,7.47
2023-03-10T14:14:12.700Z,3.10
2023-03-10T14:16:49.944Z,3.53
2023-03-10T14:19:55.060Z,3.47
2023-03-10T14:22:37.947Z,6.60
2023-03-10T14:25:17.356Z,11.27
2023-03-10T14:27:48.019Z,10.40
2023-03-10T14:30:24.122Z,10.37
2023-03-10T14:32:53.779Z,3.83
2023-03-10T14:35:29.846Z,8.73
2023-03-10T14:37:59.623Z,6.00
2023-03-10T14:40:28.086Z,9.13
2023-03-10T14:43:00.656Z,9.33
2023-03-10T14:45:32.504Z,15.37
2023-03-10T14:48:04.664Z,13.20
2023-03-10T14:50:33.202Z,7.50
2023-03-10T14:53:04.224Z,10.43
2023-03-10T14:55:32.589Z,14.87
2023-03-10T14:58:05.401Z,6.40
2023-03-10T15:00:34.930Z,3.37
2023-03-10T15:03:06.288Z,2.37
2023-03-10T15:05:47.803Z,3.40
2023-03-10T15:08:19.659Z,6.17
2023-03-10T15:10:51.057Z,4.63
2023-03-10T15:13:21.965Z,5.77
2023-03-10T15:15:50.938Z,2.93
2023-03-10T15:18:21.083Z,6.27
2023-03-10T15:20:50.185Z,4.33
2023-03-10T15:23:20.438Z,5.63
2023-03-10T15:25:48.805Z,3.63
2023-03-10T15:28:17.679Z,4.77
2023-03-10T15:30:46.127Z,5.57
2023-03-10T15:33:14.776Z,4.40
2023-03-10T15:35:45.113Z,4.57
2023-03-10T15:38:15.717Z,2.80
2023-03-10T15:40:45.680Z,4.00
2023-03-10T15:43:14.055Z,5.67
2023-03-10T15:45:43.797Z,11.10
2023-03-10T15:48:12.472Z,9.23
2023-03-10T15:50:43.330Z,4.00
2023-03-10T15:53:11.794Z,6.23
2023-03-10T15:55:42.058Z,6.63
2023-03-10T15:58:12.447Z,7.00
2023-03-10T16:00:43.767Z,7.53
2023-03-10T16:03:17.705Z,5.17
2023-03-10T16:05:49.052Z,7.23
2023-03-10T16:08:19.370Z,8.57
2023-03-10T16:10:54.549Z,3.63
2023-03-10T16:13:25.097Z,7.37
2023-03-10T16:15:53.985Z,4.43
2023-03-10T16:18:23.085Z,4.67
2023-03-10T16:21:02.642Z,2.37
2023-03-10T16:23:32.641Z,5.47
2023-03-10T16:26:08.786Z,3.93
2023-03-10T16:28:40.284Z,3.90
2023-03-10T16:31:09.922Z,2.97
2023-03-10T16:33:38.578Z,5.03
2023-03-10T16:36:09.509Z,2.40
2023-03-10T16:38:38.295Z,3.80
2023-03-10T16:41:07.813Z,1.30
2023-03-10T16:43:36.472Z,1.80
2023-03-10T16:46:08.341Z,2.20
2023-03-10T16:48:39.235Z,3.93
2023-03-10T16:51:18.944Z,0.93
2023-03-10T16:53:48.699Z,2.07
2023-03-10T16:56:17.699Z,2.70
2023-03-10T16:58:46.511Z,4.10
2023-03-10T17:01:16.287Z,5.87
2023-03-10T17:03:45.216Z,9.77
2023-03-10T17:06:15.698Z,6.60
2023-03-10T17:08:44.216Z,3.27
2023-03-10T17:11:19.867Z,8.90
2023-03-10T17:13:49.711Z,3.40
2023-03-10T17:16:20.678Z,2.97
2023-03-10T17:18:49.183Z,1.17
2023-03-10T17:21:19.740Z,2.87
2023-03-10T17:23:48.955Z,4.03
2023-03-10T17:26:22.580Z,5.17
2023-03-10T17:28:53.269Z,4.67
2023-03-10T17:31:27.079Z,4.67
2023-03-10T17:33:57.437Z,3.13
2023-03-10T17:36:27.198Z,5.30
2023-03-10T17:38:57.885Z,7.17
2023-03-10T17:41:27.071Z,3.30
2023-03-10T17:43:56.481Z,8.57
2023-03-10T17:46:27.879Z,7.67
2023-03-10T17:48:56.783Z,7.83
2023-03-10T17:51:27.280Z,6.53
2023-03-10T17:53:57.466Z,6.67
2023-03-10T17:56:26.218Z,10.93
2023-03-10T17:58:55.591Z,9.40
2023-03-10T18:01:28.052Z,4.10
2023-03-10T18:03:57.536Z,3.93
2023-03-10T18:06:28.495Z,9.00
2023-03-10T18:08:58.366Z,6.40
2023-03-10T18:11:27.946Z,4.23
2023-03-10T18:13:58.102Z,2.33
2023-03-10T18:16:29.920Z,1.90
2023-03-10T18:19:00.333Z,2.67
2023-03-10T18:21:29.958Z,4.47
2023-03-10T18:23:58.607Z,3.70
2023-03-10T18:26:30.433Z,2.57
2023-03-10T18:28:59.304Z,2.87
2023-03-10T18:31:32.717Z,2.00
2023-03-10T18:34:01.651Z,4.07
2023-03-10T18:36:31.117Z,0.80
2023-03-10T18:39:00.098Z,2.73
2023-03-10T18:41:30.961Z,1.30
2023-03-10T18:43:59.992Z,2.00
2023-03-10T18:46:30.846Z,1.60
2023-03-10T18:48:59.337Z,4.20
2023-03-10T18:51:29.426Z,2.37
2023-03-10T18:53:58.198Z,5.13
2023-03-10T18:56:29.126Z,5.13
2023-03-10T18:58:57.634Z,3.63
2023-03-10T19:01:26.914Z,9.07
2023-03-10T19:03:56.833Z,2.80
2023-03-10T19:06:29.987Z,8.67
2023-03-10T19:08:58.416Z,4.17
2023-03-10T19:11:27.947Z,8.33
2023-03-10T19:13:56.463Z,11.17
2023-03-10T19:16:24.864Z,6.03
2023-03-10T19:18:53.779Z,3.63
2023-03-10T19:21:24.253Z,5.53
2023-03-10T19:23:52.850Z,13.23
2023-03-10T19:26:21.348Z,5.93
2023-03-10T19:28:50.413Z,5.80
2023-03-10T19:31:18.939Z,6.27
2023-03-10T19:33:47.354Z,5.50
2023-03-10T19:36:17.022Z,5.90
2023-03-10T19:38:46.838Z,7.77
2023-03-10T19:41:16.733Z,3.90
2023-03-10T19:43:45.836Z,5.90
2023-03-10T19:46:15.661Z,7.50
2023-03-10T19:48:45.566Z,8.53
2023-03-10T19:51:21.970Z,6.63
2023-03-10T19:53:53.876Z,7.17
2023-03-10T19:56:23.372Z,8.30
2023-03-10T19:58:52.378Z,6.47
2023-03-10T20:01:24.359Z,6.67
2023-03-10T20:03:53.351Z,7.53
2023-03-10T20:06:22.090Z,13.90
2023-03-10T20:08:52.104Z,13.43
2023-03-10T20:11:20.675Z,7.73
2023-03-10T20:13:49.467Z,7.83
2023-03-10T20:16:18.548Z,8.43
2023-03-10T20:18:47.309Z,3.57
2023-03-10T20:21:16.638Z,4.63
2023-03-10T20:23:47.690Z,3.70
2023-03-10T20:26:17.529Z,8.37
2023-03-10T20:28:46.610Z,5.03
2023-03-10T20:31:17.879Z,5.90
2023-03-10T20:33:46.573Z,5.77
2023-03-10T20:36:16.090Z,6.23
2023-03-10T20:38:46.296Z,4.77
2023-03-10T20:41:17.861Z,6.37
2023-03-10T20:43:46.751Z,2.83
2023-03-10T20:46:17.698Z,4.50
2023-03-10T20:48:46.305Z,3.10
2023-03-10T20:51:15.106Z,2.60
2023-03-10T20:53:43.774Z,4.13
2023-03-10T20:56:14.358Z,3.93
2023-03-10T20:58:44.192Z,4.13
2023-03-10T21:01:17.397Z,3.23
2023-03-10T21:03:45.854Z,6.77
2023-03-10T21:06:14.304Z,4.03
2023-03-10T21:08:42.764Z,4.33
2023-03-10T21:11:11.086Z,5.13
2023-03-10T21:13:40.862Z,3.80
2023-03-10T21:16:11.203Z,3.47
2023-03-10T21:18:40.276Z,5.27
2023-03-10T21:21:09.953Z,3.13
2023-03-10T21:23:39.671Z,4.43
2023-03-10T21:26:12.548Z,5.73
2023-03-10T21:28:41.182Z,3.17
2023-03-10T21:31:11.212Z,3.93
2023-03-10T21:33:41.736Z,5.70
2023-03-10T21:36:12.668Z,7.43
2023-03-10T21:38:41.131Z,4.67
2023-03-10T21:41:09.723Z,7.27
2023-03-10T21:43:38.115Z,6.17
2023-03-10T21:46:06.890Z,6.30
2023-03-10T21:48:36.677Z,9.23
2023-03-10T21:51:09.699Z,4.70
2023-03-10T21:53:38.272Z,8.37
2023-03-10T21:56:08.307Z,10.43
2023-03-10T21:58:36.817Z,6.17
2023-03-10T22:01:06.212Z,9.93
2023-03-10T22:03:36.550Z,7.30
2023-03-10T22:06:05.210Z,5.83
2023-03-10T22:08:33.970Z,5.00
2023-03-10T22:11:03.564Z,6.60
2023-03-10T22:13:31.911Z,8.23
2023-03-10T22:16:01.732Z,8.87
2023-03-10T22:18:30.470Z,4.90
2023-03-10T22:21:00.238Z,5.30
2023-03-10T22:23:29.536Z,5.60
2023-03-10T22:25:57.872Z,6.57
2023-03-10T22:28:26.333Z,4.23
2023-03-10T22:30:54.816Z,5.63
2023-03-10T22:33:23.182Z,3.70
2023-03-10T22:35:52.503Z,4.90
2023-03-10T22:38:22.416Z,5.57
2023-03-10T22:40:50.800Z,4.63
2023-03-10T22:43:19.122Z,3.37
2023-03-10T22:45:47.634Z,8.40
2023-03-10T22:48:16.141Z,2.83
2023-03-10T22:50:46.766Z,6.80
2023-03-10T22:53:16.722Z,6.93
2023-03-10T22:55:48.387Z,4.97
2023-03-10T22:58:17.381Z,9.53
2023-03-10T23:00:46.411Z,5.10
2023-03-10T23:03:15.419Z,4.27
2023-03-10T23:05:45.151Z,10.47
2023-03-10T23:08:14.074Z,8.33
2023-03-10T23:10:43.293Z,6.80
2023-03-10T23:13:15.841Z,8.63
2023-03-10T23:15:45.126Z,4.37
2023-03-10T23:18:13.634Z,12.47
2023-03-10T23:20:44.686Z,9.77
2023-03-10T23:23:15.149Z,5.53
2023-03-10T23:25:47.224Z,10.10
2023-03-10T23:28:17.686Z,7.40
2023-03-10T23:30:48.573Z,8.57
2023-03-10T23:33:20.316Z,7.27
2023-03-10T23:35:50.528Z,8.50
2023-03-10T23:38:19.030Z,7.30
2023-03-10T23:40:47.601Z,12.53
2023-03-10T23:43:17.693Z,7.30
2023-03-10T23:45:46.504Z,9.63
2023-03-10T23:48:18.148Z,11.00
2023-03-10T23:50:48.931Z,8.83
2023-03-10T23:53:20.776Z,7.40
2023-03-10T23:55:49.572Z,9.00
2023-03-10T23:58:21.326Z,12.20
